sensor_id;sensor_type;location;lat;lon;timestamp;temperature;humidity
15556;DHT22;7879;48.660;9.116;2022-11-15T00:01:07;4.70;99.90
15556;DHT22;7879;48.660;9.116;2022-11-15T00:03:34;4.70;99.90
15556;DHT22;7879;48.660;9.116;2022-11-15T00:06:02;4.70;99.90
15556;DHT22;7879;48.660;9.116;2022-11-15T00:08:31;4.70;99.90
15556;DHT22;7879;48.660;9.116;2022-11-15T00:10:59;4.70;99.90
15556;DHT22;7879;48.660;9.116;2022-11-15T00:13:27;4.70;99.90
15556;DHT22;7879;48.660;9.116;2022-11-15T00:15:57;4.60;99.90
15556;DHT22;7879;48.660;9.116;2022-11-15T00:18:25;4.60;99.90
15556;DHT22;7879;48.660;9.116;2022-11-15T00:20:52;4.60;99.90
15556;DHT22;7879;48.660;9.116;2022-11-15T00:23:18;4.60;99.90
15556;DHT22;7879;48.660;9.116;2022-11-15T00:25:45;4.60;99.90
15556;DHT22;7879;48.660;9.116;2022-11-15T00:28:12;4.50;99.90
15556;DHT22;7879;48.660;9.116;2022-11-15T00:30:38;4.50;99.90
15556;DHT22;7879;48.660;9.116;2022-11-15T00:33:06;4.50;99.90
15556;DHT22;7879;48.660;9.116;2022-11-15T00:35:34;4.50;99.90
15556;DHT22;7879;48.660;9.116;2022-11-15T00:38:01;4.50;99.90
15556;DHT22;7879;48.660;9.116;2022-11-15T00:40:29;4.40;99.90
15556;DHT22;7879;48.660;9.116;2022-11-15T00:42:56;4.40;99.90
15556;DHT22;7879;48.660;9.116;2022-11-15T00:45:23;4.40;99.90
15556;DHT22;7879;48.660;9.116;2022-11-15T00:47:50;4.30;99.90
15556;DHT22;7879;48.660;9.116;2022-11-15T00:50:17;4.30;99.90
15556;DHT22;7879;48.660;9.116;2022-11-15T00:52:45;4.20;99.90
15556;DHT22;7879;48.660;9.116;2022-11-15T00:55:19;4.20;99.90
15556;DHT22;7879;48.660;9.116;2022-11-15T00:57:46;4.20;99.90
15556;DHT22;7879;48.660;9.116;2022-11-15T01:00:13;4.10;99.90
15556;DHT22;7879;48.660;9.116;2022-11-15T01:02:40;4.20;99.90
15556;DHT22;7879;48.660;9.116;2022-11-15T01:05:08;4.10;99.90
15556;DHT22;7879;48.660;9.116;2022-11-15T01:07:34;4.00;99.90
15556;DHT22;7879;48.660;9.116;2022-11-15T01:10:02;4.00;99.90
15556;DHT22;7879;48.660;9.116;2022-11-15T01:12:28;4.00;99.90
15556;DHT22;7879;48.660;9.116;2022-11-15T01:14:55;4.00;99.90
15556;DHT22;7879;48.660;9.116;2022-11-15T01:17:22;4.00;99.90
15556;DHT22;7879;48.660;9.116;2022-11-15T01:19:49;4.00;99.90
15556;DHT22;7879;48.660;9.116;2022-11-15T01:22:16;4.00;99.90
15556;DHT22;7879;48.660;9.116;2022-11-15T01:24:42;3.90;99.90
15556;DHT22;7879;48.660;9.116;2022-11-15T01:27:09;3.90;99.90
15556;DHT22;7879;48.660;9.116;2022-11-15T01:29:36;3.90;99.90
15556;DHT22;7879;48.660;9.116;2022-11-15T01:32:03;3.80;99.90
15556;DHT22;7879;48.660;9.116;2022-11-15T01:34:30;3.80;99.90
15556;DHT22;7879;48.660;9.116;2022-11-15T01:36:56;3.70;99.90
15556;DHT22;7879;48.660;9.116;2022-11-15T01:39:23;3.80;99.90
15556;DHT22;7879;48.660;9.116;2022-11-15T01:41:50;3.80;99.90
15556;DHT22;7879;48.660;9.116;2022-11-15T01:47:26;3.80;99.90
15556;DHT22;7879;48.660;9.116;2022-11-15T01:49:59;3.80;99.90
15556;DHT22;7879;48.660;9.116;2022-11-15T01:52:29;3.80;99.90
15556;DHT22;7879;48.660;9.116;2022-11-15T01:55:06;3.70;99.90
15556;DHT22;7879;48.660;9.116;2022-11-15T01:57:34;3.70;99.90
15556;DHT22;7879;48.660;9.116;2022-11-15T02:00:05;3.70;99.90
15556;DHT22;7879;48.660;9.116;2022-11-15T02:02:33;3.70;99.90
15556;DHT22;7879;48.660;9.116;2022-11-15T02:05:00;3.70;99.90
15556;DHT22;7879;48.660;9.116;2022-11-15T02:07:28;3.60;99.90
15556;DHT22;7879;48.660;9.116;2022-11-15T02:09:58;3.60;99.90
15556;DHT22;7879;48.660;9.116;2022-11-15T02:12:28;3.70;99.90
15556;DHT22;7879;48.660;9.116;2022-11-15T02:14:58;3.60;99.90
15556;DHT22;7879;48.660;9.116;2022-11-15T02:31:51;3.50;99.90
15556;DHT22;7879;48.660;9.116;2022-11-15T02:37:11;3.50;99.90
15556;DHT22;7879;48.660;9.116;2022-11-15T02:40:07;3.50;99.90
15556;DHT22;7879;48.660;9.116;2022-11-15T02:42:35;3.50;99.90
15556;DHT22;7879;48.660;9.116;2022-11-15T02:45:28;3.50;99.90
15556;DHT22;7879;48.660;9.116;2022-11-15T02:47:57;3.50;99.90
15556;DHT22;7879;48.660;9.116;2022-11-15T02:50:29;3.50;99.90
15556;DHT22;7879;48.660;9.116;2022-11-15T02:52:56;3.50;99.90
15556;DHT22;7879;48.660;9.116;2022-11-15T02:55:51;3.50;99.90
15556;DHT22;7879;48.660;9.116;2022-11-15T02:58:48;3.50;99.90
15556;DHT22;7879;48.660;9.116;2022-11-15T03:01:43;3.50;99.90
15556;DHT22;7879;48.660;9.116;2022-11-15T03:06:55;3.60;99.90
15556;DHT22;7879;48.660;9.116;2022-11-15T03:12:29;3.50;99.90
15556;DHT22;7879;48.660;9.116;2022-11-15T03:18:21;3.40;99.90
15556;DHT22;7879;48.660;9.116;2022-11-15T03:20:53;3.30;99.90
15556;DHT22;7879;48.660;9.116;2022-11-15T03:23:22;3.40;99.90
15556;DHT22;7879;48.660;9.116;2022-11-15T03:25:50;3.40;99.90
15556;DHT22;7879;48.660;9.116;2022-11-15T03:28:31;3.40;99.90
15556;DHT22;7879;48.660;9.116;2022-11-15T03:31:04;3.50;99.90
15556;DHT22;7879;48.660;9.116;2022-11-15T03:33:57;3.50;99.90
15556;DHT22;7879;48.660;9.116;2022-11-15T03:36:28;3.50;99.90
15556;DHT22;7879;48.660;9.116;2022-11-15T03:39:01;3.50;99.90
15556;DHT22;7879;48.660;9.116;2022-11-15T03:41:43;3.60;99.90
15556;DHT22;7879;48.660;9.116;2022-11-15T03:44:41;3.60;99.90
15556;DHT22;7879;48.660;9.116;2022-11-15T03:47:28;3.70;99.90
15556;DHT22;7879;48.660;9.116;2022-11-15T03:50:06;3.70;99.90
15556;DHT22;7879;48.660;9.116;2022-11-15T03:52:34;3.70;99.90
15556;DHT22;7879;48.660;9.116;2022-11-15T03:55:03;3.70;99.90
15556;DHT22;7879;48.660;9.116;2022-11-15T03:57:32;3.60;99.90
15556;DHT22;7879;48.660;9.116;2022-11-15T03:59:59;3.70;99.90
15556;DHT22;7879;48.660;9.116;2022-11-15T04:02:33;3.60;99.90
15556;DHT22;7879;48.660;9.116;2022-11-15T04:04:59;3.60;99.90
15556;DHT22;7879;48.660;9.116;2022-11-15T04:07:26;3.60;99.90
15556;DHT22;7879;48.660;9.116;2022-11-15T04:09:54;3.60;99.90
15556;DHT22;7879;48.660;9.116;2022-11-15T04:15:01;3.50;99.90
15556;DHT22;7879;48.660;9.116;2022-11-15T04:17:42;3.40;99.90
15556;DHT22;7879;48.660;9.116;2022-11-15T04:23:01;3.40;99.90
15556;DHT22;7879;48.660;9.116;2022-11-15T04:25:49;3.40;99.90
15556;DHT22;7879;48.660;9.116;2022-11-15T04:28:17;3.40;99.90
15556;DHT22;7879;48.660;9.116;2022-11-15T04:30:48;3.50;99.90
15556;DHT22;7879;48.660;9.116;2022-11-15T04:33:21;3.40;99.90
15556;DHT22;7879;48.660;9.116;2022-11-15T04:35:50;3.40;99.90
15556;DHT22;7879;48.660;9.116;2022-11-15T04:38:43;3.30;99.90
15556;DHT22;7879;48.660;9.116;2022-11-15T04:41:13;3.30;99.90
15556;DHT22;7879;48.660;9.116;2022-11-15T04:43:39;3.30;99.90
15556;DHT22;7879;48.660;9.116;2022-11-15T04:46:06;3.30;99.90
15556;DHT22;7879;48.660;9.116;2022-11-15T04:48:33;3.40;99.90
15556;DHT22;7879;48.660;9.116;2022-11-15T04:51:03;3.40;99.90
15556;DHT22;7879;48.660;9.116;2022-11-15T04:53:32;3.40;99.90
15556;DHT22;7879;48.660;9.116;2022-11-15T04:56:02;3.40;99.90
15556;DHT22;7879;48.660;9.116;2022-11-15T04:58:28;3.50;99.90
15556;DHT22;7879;48.660;9.116;2022-11-15T05:00:55;3.50;99.90
15556;DHT22;7879;48.660;9.116;2022-11-15T05:03:22;3.50;99.90
15556;DHT22;7879;48.660;9.116;2022-11-15T05:06:08;3.50;99.90
15556;DHT22;7879;48.660;9.116;2022-11-15T05:08:35;3.40;99.90
15556;DHT22;7879;48.660;9.116;2022-11-15T05:11:02;3.50;99.90
15556;DHT22;7879;48.660;9.116;2022-11-15T05:13:29;3.50;99.90
15556;DHT22;7879;48.660;9.116;2022-11-15T05:15:59;3.50;99.90
15556;DHT22;7879;48.660;9.116;2022-11-15T05:18:27;3.40;99.90
15556;DHT22;7879;48.660;9.116;2022-11-15T05:20:54;3.40;99.90
15556;DHT22;7879;48.660;9.116;2022-11-15T05:23:20;3.40;99.90
15556;DHT22;7879;48.660;9.116;2022-11-15T05:25:50;3.40;99.90
15556;DHT22;7879;48.660;9.116;2022-11-15T05:28:19;3.30;99.90
15556;DHT22;7879;48.660;9.116;2022-11-15T05:30:49;3.30;99.90
15556;DHT22;7879;48.660;9.116;2022-11-15T05:33:16;3.30;99.90
15556;DHT22;7879;48.660;9.116;2022-11-15T05:35:48;3.20;99.90
15556;DHT22;7879;48.660;9.116;2022-11-15T05:38:19;3.30;99.90
15556;DHT22;7879;48.660;9.116;2022-11-15T05:40:46;3.30;99.90
15556;DHT22;7879;48.660;9.116;2022-11-15T05:43:18;3.50;99.90
15556;DHT22;7879;48.660;9.116;2022-11-15T05:45:45;3.40;99.90
15556;DHT22;7879;48.660;9.116;2022-11-15T05:48:12;3.40;99.90
15556;DHT22;7879;48.660;9.116;2022-11-15T05:50:43;3.30;99.90
15556;DHT22;7879;48.660;9.116;2022-11-15T05:53:14;3.40;99.90
15556;DHT22;7879;48.660;9.116;2022-11-15T05:55:41;3.40;99.90
15556;DHT22;7879;48.660;9.116;2022-11-15T05:58:08;3.40;99.90
15556;DHT22;7879;48.660;9.116;2022-11-15T06:00:35;3.40;99.90
15556;DHT22;7879;48.660;9.116;2022-11-15T06:03:01;3.40;99.90
15556;DHT22;7879;48.660;9.116;2022-11-15T06:05:28;3.50;99.90
15556;DHT22;7879;48.660;9.116;2022-11-15T06:07:58;3.40;99.90
15556;DHT22;7879;48.660;9.116;2022-11-15T06:10:25;3.40;99.90
15556;DHT22;7879;48.660;9.116;2022-11-15T06:12:59;3.40;99.90
15556;DHT22;7879;48.660;9.116;2022-11-15T06:15:27;3.40;99.90
15556;DHT22;7879;48.660;9.116;2022-11-15T06:17:58;3.30;99.90
15556;DHT22;7879;48.660;9.116;2022-11-15T06:20:31;3.30;99.90
15556;DHT22;7879;48.660;9.116;2022-11-15T06:22:59;3.20;99.90
15556;DHT22;7879;48.660;9.116;2022-11-15T06:25:27;3.40;99.90
15556;DHT22;7879;48.660;9.116;2022-11-15T06:27:55;3.30;99.90
15556;DHT22;7879;48.660;9.116;2022-11-15T06:30:24;3.30;99.90
15556;DHT22;7879;48.660;9.116;2022-11-15T06:32:57;3.20;99.90
15556;DHT22;7879;48.660;9.116;2022-11-15T06:35:24;3.30;99.90
15556;DHT22;7879;48.660;9.116;2022-11-15T06:37:54;3.30;99.90
15556;DHT22;7879;48.660;9.116;2022-11-15T06:40:21;3.30;99.90
15556;DHT22;7879;48.660;9.116;2022-11-15T06:42:47;3.30;99.90
15556;DHT22;7879;48.660;9.116;2022-11-15T06:45:15;3.30;99.90
15556;DHT22;7879;48.660;9.116;2022-11-15T06:47:46;3.30;99.90
15556;DHT22;7879;48.660;9.116;2022-11-15T06:50:19;3.30;99.90
15556;DHT22;7879;48.660;9.116;2022-11-15T06:53:58;3.30;99.90
15556;DHT22;7879;48.660;9.116;2022-11-15T06:56:44;3.40;99.90
15556;DHT22;7879;48.660;9.116;2022-11-15T06:59:11;3.40;99.90
15556;DHT22;7879;48.660;9.116;2022-11-15T07:01:38;3.40;99.90
15556;DHT22;7879;48.660;9.116;2022-11-15T07:04:05;3.40;99.90
15556;DHT22;7879;48.660;9.116;2022-11-15T07:06:31;3.40;99.90
15556;DHT22;7879;48.660;9.116;2022-11-15T07:08:58;3.40;99.90
15556;DHT22;7879;48.660;9.116;2022-11-15T07:11:25;3.40;99.90
15556;DHT22;7879;48.660;9.116;2022-11-15T07:13:51;3.40;99.90
15556;DHT22;7879;48.660;9.116;2022-11-15T07:16:18;3.40;99.90
15556;DHT22;7879;48.660;9.116;2022-11-15T07:18:45;3.40;99.90
15556;DHT22;7879;48.660;9.116;2022-11-15T07:21:12;3.50;99.90
15556;DHT22;7879;48.660;9.116;2022-11-15T07:23:39;3.50;99.90
15556;DHT22;7879;48.660;9.116;2022-11-15T07:26:07;3.50;99.90
15556;DHT22;7879;48.660;9.116;2022-11-15T07:28:34;3.60;99.90
15556;DHT22;7879;48.660;9.116;2022-11-15T07:31:06;3.60;99.90
15556;DHT22;7879;48.660;9.116;2022-11-15T07:33:34;3.60;99.90
15556;DHT22;7879;48.660;9.116;2022-11-15T07:36:02;3.70;99.90
15556;DHT22;7879;48.660;9.116;2022-11-15T07:38:30;3.80;99.90
15556;DHT22;7879;48.660;9.116;2022-11-15T07:41:01;3.80;99.90
15556;DHT22;7879;48.660;9.116;2022-11-15T07:43:29;3.90;99.90
15556;DHT22;7879;48.660;9.116;2022-11-15T07:45:57;3.90;99.90
15556;DHT22;7879;48.660;9.116;2022-11-15T07:48:25;4.00;99.90
15556;DHT22;7879;48.660;9.116;2022-11-15T07:51:14;4.10;99.90
15556;DHT22;7879;48.660;9.116;2022-11-15T07:53:42;4.10;99.90
15556;DHT22;7879;48.660;9.116;2022-11-15T07:56:09;4.20;99.90
15556;DHT22;7879;48.660;9.116;2022-11-15T07:58:36;4.30;99.90
15556;DHT22;7879;48.660;9.116;2022-11-15T08:01:07;4.40;99.90
15556;DHT22;7879;48.660;9.116;2022-11-15T08:03:36;4.50;99.90
15556;DHT22;7879;48.660;9.116;2022-11-15T08:06:03;4.60;99.90
15556;DHT22;7879;48.660;9.116;2022-11-15T08:08:29;4.70;99.90
15556;DHT22;7879;48.660;9.116;2022-11-15T08:11:00;4.80;99.90
15556;DHT22;7879;48.660;9.116;2022-11-15T08:13:30;4.80;99.90
15556;DHT22;7879;48.660;9.116;2022-11-15T08:16:01;4.80;99.90
15556;DHT22;7879;48.660;9.116;2022-11-15T08:18:29;4.90;99.90
15556;DHT22;7879;48.660;9.116;2022-11-15T08:20:59;5.00;99.90
15556;DHT22;7879;48.660;9.116;2022-11-15T08:23:26;5.10;99.90
15556;DHT22;7879;48.660;9.116;2022-11-15T08:25:59;5.20;99.90
15556;DHT22;7879;48.660;9.116;2022-11-15T08:28:27;5.20;99.90
15556;DHT22;7879;48.660;9.116;2022-11-15T08:30:54;5.30;99.90
15556;DHT22;7879;48.660;9.116;2022-11-15T08:33:20;5.30;99.90
15556;DHT22;7879;48.660;9.116;2022-11-15T08:35:48;5.40;99.90
15556;DHT22;7879;48.660;9.116;2022-11-15T08:38:15;5.50;99.90
15556;DHT22;7879;48.660;9.116;2022-11-15T08:40:41;5.60;99.90
15556;DHT22;7879;48.660;9.116;2022-11-15T08:43:08;5.80;99.90
15556;DHT22;7879;48.660;9.116;2022-11-15T08:45:35;5.90;99.90
15556;DHT22;7879;48.660;9.116;2022-11-15T08:48:03;6.00;99.90
15556;DHT22;7879;48.660;9.116;2022-11-15T08:50:30;6.20;99.90
15556;DHT22;7879;48.660;9.116;2022-11-15T08:52:57;6.30;99.90
15556;DHT22;7879;48.660;9.116;2022-11-15T08:55:23;6.40;99.90
15556;DHT22;7879;48.660;9.116;2022-11-15T08:57:50;6.50;99.90
15556;DHT22;7879;48.660;9.116;2022-11-15T09:00:17;6.60;99.90
15556;DHT22;7879;48.660;9.116;2022-11-15T09:02:47;6.80;99.90
15556;DHT22;7879;48.660;9.116;2022-11-15T09:05:13;6.90;99.90
15556;DHT22;7879;48.660;9.116;2022-11-15T09:07:42;7.00;99.90
15556;DHT22;7879;48.660;9.116;2022-11-15T09:10:10;7.10;99.90
15556;DHT22;7879;48.660;9.116;2022-11-15T09:12:38;7.10;99.90
15556;DHT22;7879;48.660;9.116;2022-11-15T09:15:08;7.10;99.90
15556;DHT22;7879;48.660;9.116;2022-11-15T09:17:35;7.30;99.90
15556;DHT22;7879;48.660;9.116;2022-11-15T09:20:03;7.40;99.90
15556;DHT22;7879;48.660;9.116;2022-11-15T09:22:31;7.60;99.90
15556;DHT22;7879;48.660;9.116;2022-11-15T09:24:59;7.90;99.90
15556;DHT22;7879;48.660;9.116;2022-11-15T09:27:29;8.10;99.90
15556;DHT22;7879;48.660;9.116;2022-11-15T09:29:56;8.30;99.90
15556;DHT22;7879;48.660;9.116;2022-11-15T09:32:23;8.60;99.90
15556;DHT22;7879;48.660;9.116;2022-11-15T09:34:53;8.90;99.90
15556;DHT22;7879;48.660;9.116;2022-11-15T09:37:19;9.10;99.90
15556;DHT22;7879;48.660;9.116;2022-11-15T09:39:46;9.40;99.90
15556;DHT22;7879;48.660;9.116;2022-11-15T09:42:38;9.70;99.90
15556;DHT22;7879;48.660;9.116;2022-11-15T09:45:18;10.00;99.90
15556;DHT22;7879;48.660;9.116;2022-11-15T09:50:57;10.20;99.90
15556;DHT22;7879;48.660;9.116;2022-11-15T09:56:28;10.00;99.90
15556;DHT22;7879;48.660;9.116;2022-11-15T10:01:55;9.70;99.90
15556;DHT22;7879;48.660;9.116;2022-11-15T10:04:24;9.70;99.90
15556;DHT22;7879;48.660;9.116;2022-11-15T10:06:58;9.60;99.90
15556;DHT22;7879;48.660;9.116;2022-11-15T10:12:15;9.60;99.90
15556;DHT22;7879;48.660;9.116;2022-11-15T10:14:42;9.60;99.90
15556;DHT22;7879;48.660;9.116;2022-11-15T10:20:00;9.60;99.90
15556;DHT22;7879;48.660;9.116;2022-11-15T10:22:45;9.60;99.90
15556;DHT22;7879;48.660;9.116;2022-11-15T10:25:19;9.60;99.90
15556;DHT22;7879;48.660;9.116;2022-11-15T10:30:39;9.80;99.90
15556;DHT22;7879;48.660;9.116;2022-11-15T10:36:16;9.80;99.90
15556;DHT22;7879;48.660;9.116;2022-11-15T10:46:35;9.90;99.90
15556;DHT22;7879;48.660;9.116;2022-11-15T10:49:14;10.00;99.90
15556;DHT22;7879;48.660;9.116;2022-11-15T10:57:40;10.00;99.90
15556;DHT22;7879;48.660;9.116;2022-11-15T11:05:39;10.20;99.90
15556;DHT22;7879;48.660;9.116;2022-11-15T11:10:38;10.30;99.90
15556;DHT22;7879;48.660;9.116;2022-11-15T11:13:29;10.30;99.90
15556;DHT22;7879;48.660;9.116;2022-11-15T11:19:28;10.50;99.90
15556;DHT22;7879;48.660;9.116;2022-11-15T11:25:01;10.60;99.90
15556;DHT22;7879;48.660;9.116;2022-11-15T11:27:54;10.60;99.90
15556;DHT22;7879;48.660;9.116;2022-11-15T11:33:17;10.60;99.90
15556;DHT22;7879;48.660;9.116;2022-11-15T11:44:22;10.70;99.90
15556;DHT22;7879;48.660;9.116;2022-11-15T11:46:55;10.80;99.90
15556;DHT22;7879;48.660;9.116;2022-11-15T11:49:39;10.80;99.90
15556;DHT22;7879;48.660;9.116;2022-11-15T11:54:52;10.90;99.90
15556;DHT22;7879;48.660;9.116;2022-11-15T11:57:29;11.10;99.90
15556;DHT22;7879;48.660;9.116;2022-11-15T12:02:40;11.10;99.90
15556;DHT22;7879;48.660;9.116;2022-11-15T12:08:05;11.20;99.90
15556;DHT22;7879;48.660;9.116;2022-11-15T12:10:36;11.20;99.90
15556;DHT22;7879;48.660;9.116;2022-11-15T12:13:13;11.20;99.90
15556;DHT22;7879;48.660;9.116;2022-11-15T12:15:47;11.30;99.90
15556;DHT22;7879;48.660;9.116;2022-11-15T12:18:16;11.30;99.90
15556;DHT22;7879;48.660;9.116;2022-11-15T12:21:14;11.40;99.90
15556;DHT22;7879;48.660;9.116;2022-11-15T12:23:57;11.40;99.90
15556;DHT22;7879;48.660;9.116;2022-11-15T12:26:31;11.40;99.90
15556;DHT22;7879;48.660;9.116;2022-11-15T12:29:03;11.40;99.90
15556;DHT22;7879;48.660;9.116;2022-11-15T12:36:45;11.40;99.90
15556;DHT22;7879;48.660;9.116;2022-11-15T12:39:13;11.40;99.90
15556;DHT22;7879;48.660;9.116;2022-11-15T12:46:58;11.40;99.90
15556;DHT22;7879;48.660;9.116;2022-11-15T12:59:55;11.50;99.90
15556;DHT22;7879;48.660;9.116;2022-11-15T13:12:59;11.50;99.90
15556;DHT22;7879;48.660;9.116;2022-11-15T13:21:00;11.50;99.90
15556;DHT22;7879;48.660;9.116;2022-11-15T13:23:28;11.50;99.90
15556;DHT22;7879;48.660;9.116;2022-11-15T13:28:45;11.50;99.90
15556;DHT22;7879;48.660;9.116;2022-11-15T13:34:22;11.60;99.90
15556;DHT22;7879;48.660;9.116;2022-11-15T13:37:28;11.60;99.90
15556;DHT22;7879;48.660;9.116;2022-11-15T13:40:34;11.60;99.90
15556;DHT22;7879;48.660;9.116;2022-11-15T13:42:59;11.60;99.90
15556;DHT22;7879;48.660;9.116;2022-11-15T13:45:26;11.60;99.90
15556;DHT22;7879;48.660;9.116;2022-11-15T13:47:57;11.60;99.90
15556;DHT22;7879;48.660;9.116;2022-11-15T13:50:27;11.60;99.90
15556;DHT22;7879;48.660;9.116;2022-11-15T13:53:01;11.60;99.90
15556;DHT22;7879;48.660;9.116;2022-11-15T13:55:30;11.60;99.90
15556;DHT22;7879;48.660;9.116;2022-11-15T13:58:03;11.60;99.90
15556;DHT22;7879;48.660;9.116;2022-11-15T14:00:41;11.60;99.90
15556;DHT22;7879;48.660;9.116;2022-11-15T14:03:30;11.60;99.90
15556;DHT22;7879;48.660;9.116;2022-11-15T14:06:15;11.60;99.90
15556;DHT22;7879;48.660;9.116;2022-11-15T14:11:24;11.60;99.90
15556;DHT22;7879;48.660;9.116;2022-11-15T14:14:11;11.60;99.90
15556;DHT22;7879;48.660;9.116;2022-11-15T14:16:47;11.50;99.90
15556;DHT22;7879;48.660;9.116;2022-11-15T14:22:07;11.60;99.90
15556;DHT22;7879;48.660;9.116;2022-11-15T14:24:34;11.60;99.90
15556;DHT22;7879;48.660;9.116;2022-11-15T14:27:23;11.60;99.90
15556;DHT22;7879;48.660;9.116;2022-11-15T14:29:51;11.60;99.90
15556;DHT22;7879;48.660;9.116;2022-11-15T14:32:21;11.60;99.90
15556;DHT22;7879;48.660;9.116;2022-11-15T14:35:08;11.60;99.90
15556;DHT22;7879;48.660;9.116;2022-11-15T14:37:36;11.50;99.90
15556;DHT22;7879;48.660;9.116;2022-11-15T14:40:05;11.50;99.90
15556;DHT22;7879;48.660;9.116;2022-11-15T14:42:32;11.50;99.90
15556;DHT22;7879;48.660;9.116;2022-11-15T14:44:59;11.50;99.90
15556;DHT22;7879;48.660;9.116;2022-11-15T14:47:26;11.50;99.90
15556;DHT22;7879;48.660;9.116;2022-11-15T14:49:52;11.40;99.90
15556;DHT22;7879;48.660;9.116;2022-11-15T14:52:30;11.40;99.90
15556;DHT22;7879;48.660;9.116;2022-11-15T14:55:04;11.40;99.90
15556;DHT22;7879;48.660;9.116;2022-11-15T14:57:36;11.40;99.90
15556;DHT22;7879;48.660;9.116;2022-11-15T15:00:05;11.40;99.90
15556;DHT22;7879;48.660;9.116;2022-11-15T15:02:32;11.40;99.90
15556;DHT22;7879;48.660;9.116;2022-11-15T15:04:59;11.30;99.90
15556;DHT22;7879;48.660;9.116;2022-11-15T15:07:28;11.30;99.90
15556;DHT22;7879;48.660;9.116;2022-11-15T15:09:55;11.30;99.90
15556;DHT22;7879;48.660;9.116;2022-11-15T15:12:42;11.30;99.90
15556;DHT22;7879;48.660;9.116;2022-11-15T15:15:26;11.30;99.90
15556;DHT22;7879;48.660;9.116;2022-11-15T15:17:53;11.30;99.90
15556;DHT22;7879;48.660;9.116;2022-11-15T15:20:19;11.20;99.90
15556;DHT22;7879;48.660;9.116;2022-11-15T15:22:46;11.20;99.90
15556;DHT22;7879;48.660;9.116;2022-11-15T15:27:45;11.10;99.90
15556;DHT22;7879;48.660;9.116;2022-11-15T15:30:12;11.10;99.90
15556;DHT22;7879;48.660;9.116;2022-11-15T15:32:39;11.00;99.90
15556;DHT22;7879;48.660;9.116;2022-11-15T15:35:10;11.00;99.90
15556;DHT22;7879;48.660;9.116;2022-11-15T15:37:37;11.00;99.90
15556;DHT22;7879;48.660;9.116;2022-11-15T15:40:14;11.00;99.90
15556;DHT22;7879;48.660;9.116;2022-11-15T15:42:42;11.00;99.90
15556;DHT22;7879;48.660;9.116;2022-11-15T15:45:10;11.00;99.90
15556;DHT22;7879;48.660;9.116;2022-11-15T15:47:37;10.90;99.90
15556;DHT22;7879;48.660;9.116;2022-11-15T15:52:51;10.90;99.90
15556;DHT22;7879;48.660;9.116;2022-11-15T15:55:40;10.80;99.90
15556;DHT22;7879;48.660;9.116;2022-11-15T15:58:08;10.80;99.90
15556;DHT22;7879;48.660;9.116;2022-11-15T16:00:35;10.70;99.90
15556;DHT22;7879;48.660;9.116;2022-11-15T16:03:03;10.70;99.90
15556;DHT22;7879;48.660;9.116;2022-11-15T16:05:30;10.60;99.90
15556;DHT22;7879;48.660;9.116;2022-11-15T16:07:57;10.60;99.90
15556;DHT22;7879;48.660;9.116;2022-11-15T16:10:32;10.60;99.90
15556;DHT22;7879;48.660;9.116;2022-11-15T16:13:00;10.50;99.90
15556;DHT22;7879;48.660;9.116;2022-11-15T16:15:29;10.50;99.90
15556;DHT22;7879;48.660;9.116;2022-11-15T16:17:58;10.50;99.90
15556;DHT22;7879;48.660;9.116;2022-11-15T16:20:41;10.40;99.90
15556;DHT22;7879;48.660;9.116;2022-11-15T16:23:12;10.40;99.90
15556;DHT22;7879;48.660;9.116;2022-11-15T16:25:47;10.40;99.90
15556;DHT22;7879;48.660;9.116;2022-11-15T16:28:20;10.40;99.90
15556;DHT22;7879;48.660;9.116;2022-11-15T16:30:48;10.40;99.90
15556;DHT22;7879;48.660;9.116;2022-11-15T16:33:22;10.30;99.90
15556;DHT22;7879;48.660;9.116;2022-11-15T16:35:48;10.40;99.90
15556;DHT22;7879;48.660;9.116;2022-11-15T16:38:15;10.40;99.90
15556;DHT22;7879;48.660;9.116;2022-11-15T16:40:43;10.40;99.90
15556;DHT22;7879;48.660;9.116;2022-11-15T16:43:10;10.40;99.90
15556;DHT22;7879;48.660;9.116;2022-11-15T16:45:37;10.40;99.90
15556;DHT22;7879;48.660;9.116;2022-11-15T16:48:04;10.40;99.90
15556;DHT22;7879;48.660;9.116;2022-11-15T16:50:33;10.40;99.90
15556;DHT22;7879;48.660;9.116;2022-11-15T16:53:05;10.40;99.90
15556;DHT22;7879;48.660;9.116;2022-11-15T16:55:32;10.40;99.90
15556;DHT22;7879;48.660;9.116;2022-11-15T16:57:59;10.40;99.90
15556;DHT22;7879;48.660;9.116;2022-11-15T17:00:27;10.40;99.90
15556;DHT22;7879;48.660;9.116;2022-11-15T17:02:54;10.30;99.90
15556;DHT22;7879;48.660;9.116;2022-11-15T17:05:22;10.30;99.90
15556;DHT22;7879;48.660;9.116;2022-11-15T17:07:50;10.30;99.90
15556;DHT22;7879;48.660;9.116;2022-11-15T17:10:24;10.20;99.90
15556;DHT22;7879;48.660;9.116;2022-11-15T17:12:51;10.20;99.90
15556;DHT22;7879;48.660;9.116;2022-11-15T17:15:19;10.20;99.90
15556;DHT22;7879;48.660;9.116;2022-11-15T17:17:53;10.10;99.90
15556;DHT22;7879;48.660;9.116;2022-11-15T17:20:23;10.10;99.90
15556;DHT22;7879;48.660;9.116;2022-11-15T17:22:50;9.90;99.90
15556;DHT22;7879;48.660;9.116;2022-11-15T17:25:18;10.00;99.90
15556;DHT22;7879;48.660;9.116;2022-11-15T17:27:45;10.00;99.90
15556;DHT22;7879;48.660;9.116;2022-11-15T17:30:13;10.00;99.90
15556;DHT22;7879;48.660;9.116;2022-11-15T17:32:44;10.00;99.90
15556;DHT22;7879;48.660;9.116;2022-11-15T17:35:12;10.00;99.90
15556;DHT22;7879;48.660;9.116;2022-11-15T17:37:41;10.00;99.90
15556;DHT22;7879;48.660;9.116;2022-11-15T17:40:09;10.00;99.90
15556;DHT22;7879;48.660;9.116;2022-11-15T17:42:36;10.00;99.90
15556;DHT22;7879;48.660;9.116;2022-11-15T17:45:03;10.00;99.90
15556;DHT22;7879;48.660;9.116;2022-11-15T17:47:35;9.90;99.90
15556;DHT22;7879;48.660;9.116;2022-11-15T17:50:02;9.90;99.90
15556;DHT22;7879;48.660;9.116;2022-11-15T17:52:30;9.90;99.90
15556;DHT22;7879;48.660;9.116;2022-11-15T17:54:56;9.90;99.90
15556;DHT22;7879;48.660;9.116;2022-11-15T17:57:23;9.90;99.90
15556;DHT22;7879;48.660;9.116;2022-11-15T17:59:50;9.90;99.90
15556;DHT22;7879;48.660;9.116;2022-11-15T18:02:17;9.90;99.90
15556;DHT22;7879;48.660;9.116;2022-11-15T18:04:45;9.90;99.90
15556;DHT22;7879;48.660;9.116;2022-11-15T18:07:12;9.80;99.90
15556;DHT22;7879;48.660;9.116;2022-11-15T18:09:40;9.80;99.90
15556;DHT22;7879;48.660;9.116;2022-11-15T18:12:10;9.80;99.90
15556;DHT22;7879;48.660;9.116;2022-11-15T18:14:37;9.80;99.90
15556;DHT22;7879;48.660;9.116;2022-11-15T18:17:04;9.80;99.90
15556;DHT22;7879;48.660;9.116;2022-11-15T18:19:30;9.70;99.90
15556;DHT22;7879;48.660;9.116;2022-11-15T18:21:57;9.70;99.90
15556;DHT22;7879;48.660;9.116;2022-11-15T18:24:33;9.70;99.90
15556;DHT22;7879;48.660;9.116;2022-11-15T18:27:02;9.70;99.90
15556;DHT22;7879;48.660;9.116;2022-11-15T18:29:29;9.70;99.90
15556;DHT22;7879;48.660;9.116;2022-11-15T18:31:57;9.70;99.90
15556;DHT22;7879;48.660;9.116;2022-11-15T18:34:26;9.70;99.90
15556;DHT22;7879;48.660;9.116;2022-11-15T18:36:59;9.60;99.90
15556;DHT22;7879;48.660;9.116;2022-11-15T18:39:28;9.60;99.90
15556;DHT22;7879;48.660;9.116;2022-11-15T18:41:55;9.60;99.90
15556;DHT22;7879;48.660;9.116;2022-11-15T18:44:22;9.60;99.90
15556;DHT22;7879;48.660;9.116;2022-11-15T18:46:49;9.60;99.90
15556;DHT22;7879;48.660;9.116;2022-11-15T18:49:16;9.60;99.90
15556;DHT22;7879;48.660;9.116;2022-11-15T18:51:45;9.60;99.90
15556;DHT22;7879;48.660;9.116;2022-11-15T18:54:13;9.60;99.90
15556;DHT22;7879;48.660;9.116;2022-11-15T18:56:41;9.60;99.90